Time;durP1;ratioP1;P1;durP2;ratioP2;P2;SDS_P1;SDS_P2;PMS_P1;PMS_P2;Temp;Humidity;BMP_temperature;BMP_pressure;BME280_temperature;BME280_humidity;BME280_pressure;Samples;Min_cycle;Max_cycle;Signal;HPM_P1;HPM_P2
2022/07/20 00:00:23;;;;;;;1.48;1.10;;;27.30;48.20;;;;;;5053046;28;20029;-66
2022/07/20 00:02:49;;;;;;;0.93;0.93;;;27.20;47.90;;;;;;5050438;28;20467;-71
2022/07/20 00:05:15;;;;;;;1.10;0.98;;;27.20;48.00;;;;;;5050461;28;20067;-72
2022/07/20 00:07:41;;;;;;;1.17;1.08;;;27.20;48.30;;;;;;5052841;28;20048;-71
2022/07/20 00:12:51;;;;;;;1.45;1.23;;;27.10;48.50;;;;;;5054328;28;20036;-66
2022/07/20 00:15:17;;;;;;;1.00;1.00;;;27.00;48.50;;;;;;5052189;28;20033;-70
2022/07/20 00:17:42;;;;;;;1.55;1.20;;;27.00;48.90;;;;;;5054144;28;20131;-66
2022/07/20 00:20:10;;;;;;;1.40;1.30;;;26.90;48.50;;;;;;5053738;28;20041;-66
2022/07/20 00:22:36;;;;;;;1.80;1.67;;;26.90;48.50;;;;;;5057481;28;20463;-66
2022/07/20 00:25:03;;;;;;;1.67;1.40;;;26.80;48.60;;;;;;5055278;28;20032;-71
2022/07/20 00:27:29;;;;;;;1.70;1.55;;;26.80;48.60;;;;;;5057054;28;20055;-65
2022/07/20 00:29:54;;;;;;;1.88;1.60;;;26.80;48.70;;;;;;5055884;28;20064;-66
2022/07/20 00:32:20;;;;;;;1.33;1.23;;;26.80;48.80;;;;;;5057141;28;20093;-66
2022/07/20 00:34:46;;;;;;;1.45;1.33;;;26.70;48.90;;;;;;5055268;28;20056;-66
2022/07/20 00:37:12;;;;;;;1.33;1.25;;;26.70;49.20;;;;;;5057333;28;20037;-71
2022/07/20 00:39:37;;;;;;;2.60;1.27;;;26.60;49.10;;;;;;5061284;28;20032;-71
2022/07/20 00:42:03;;;;;;;2.95;1.65;;;26.60;48.90;;;;;;5057583;28;20033;-71
2022/07/20 00:44:29;;;;;;;1.30;1.15;;;26.60;48.70;;;;;;5063657;28;20033;-66
2022/07/20 00:46:55;;;;;;;2.88;1.25;;;26.50;48.60;;;;;;5059710;28;20175;-66
2022/07/20 00:49:21;;;;;;;1.30;1.20;;;26.50;48.70;;;;;;5056867;28;20045;-66
2022/07/20 00:51:48;;;;;;;2.55;1.00;;;26.40;48.80;;;;;;5074795;28;20719;-66
2022/07/20 00:54:14;;;;;;;1.60;1.33;;;26.40;48.70;;;;;;5053175;28;20029;-66
2022/07/20 00:56:41;;;;;;;3.15;1.25;;;26.30;48.70;;;;;;5062323;28;20112;-71
2022/07/20 00:59:10;;;;;;;1.20;1.10;;;26.40;49.00;;;;;;5062635;28;20472;-71
2022/07/20 01:01:36;;;;;;;1.27;1.17;;;26.30;48.70;;;;;;5057175;28;20033;-71
2022/07/20 01:04:02;;;;;;;2.35;1.55;;;26.30;48.50;;;;;;5060533;28;20048;-66
2022/07/20 01:06:29;;;;;;;1.42;1.33;;;26.30;48.70;;;;;;5049810;28;20029;-65
2022/07/20 01:08:55;;;;;;;2.03;1.20;;;26.20;48.50;;;;;;5051300;28;20024;-65
2022/07/20 01:11:21;;;;;;;1.67;1.40;;;26.20;48.80;;;;;;5050149;28;20036;-66
2022/07/20 01:13:47;;;;;;;1.10;1.05;;;26.20;49.00;;;;;;5051074;28;20025;-66
2022/07/20 01:16:12;;;;;;;2.05;1.63;;;26.10;49.20;;;;;;5049039;28;20022;-66
2022/07/20 01:18:38;;;;;;;2.65;1.10;;;26.10;49.20;;;;;;5052078;28;20044;-71
2022/07/20 01:21:08;;;;;;;1.45;1.17;;;26.10;49.30;;;;;;5054146;28;20017;-72
2022/07/20 01:23:34;;;;;;;0.90;0.88;;;26.00;49.90;;;;;;5049636;28;20059;-72
2022/07/20 01:26:04;;;;;;;0.95;0.90;;;26.00;49.10;;;;;;5050463;28;20404;-71
2022/07/20 01:28:31;;;;;;;2.30;1.30;;;26.00;49.10;;;;;;5049444;28;20468;-72
2022/07/20 01:30:57;;;;;;;1.35;1.25;;;25.90;48.90;;;;;;5054968;28;20036;-71
2022/07/20 01:33:34;;;;;;;2.88;1.00;;;25.90;48.90;;;;;;5055561;28;20056;-71
2022/07/20 01:36:00;;;;;;;1.38;1.27;;;25.90;49.10;;;;;;5058575;28;20036;-72
2022/07/20 01:38:26;;;;;;;1.52;1.42;;;25.80;49.30;;;;;;5056967;28;20525;-70
2022/07/20 01:40:52;;;;;;;1.05;0.90;;;25.90;49.50;;;;;;5055954;28;20036;-71
2022/07/20 01:43:18;;;;;;;1.25;1.13;;;25.80;49.20;;;;;;5053891;28;20354;-70
2022/07/20 01:45:44;;;;;;;2.17;1.55;;;25.80;49.40;;;;;;5072952;28;20052;-65
2022/07/20 01:48:10;;;;;;;1.55;1.45;;;25.80;49.30;;;;;;5057121;28;20032;-65
2022/07/20 01:50:37;;;;;;;3.22;1.38;;;25.80;49.30;;;;;;5059132;28;20041;-65
2022/07/20 01:53:03;;;;;;;1.27;1.17;;;25.70;49.10;;;;;;5062998;28;20050;-65
2022/07/20 01:55:28;;;;;;;1.38;1.02;;;25.70;49.20;;;;;;5058744;28;20041;-65
2022/07/20 01:57:54;;;;;;;4.07;1.55;;;25.70;49.00;;;;;;5054949;28;20036;-64
2022/07/20 02:00:24;;;;;;;1.40;1.30;;;25.70;49.00;;;;;;5058570;28;20033;-65
2022/07/20 02:02:50;;;;;;;1.77;1.33;;;25.70;49.20;;;;;;5065044;28;20033;-65
2022/07/20 02:05:16;;;;;;;3.75;1.38;;;25.60;49.30;;;;;;5063794;28;20136;-64
2022/07/20 02:07:42;;;;;;;0.95;0.90;;;25.60;49.60;;;;;;5051795;28;20036;-65
2022/07/20 02:10:09;;;;;;;1.02;0.95;;;25.60;49.80;;;;;;5065023;28;20629;-65
2022/07/20 02:12:36;;;;;;;1.27;1.15;;;25.50;50.00;;;;;;5034496;28;20475;-65
2022/07/20 02:15:06;;;;;;;1.30;1.20;;;25.40;50.30;;;;;;5051008;28;20029;-65
2022/07/20 02:17:32;;;;;;;1.88;1.20;;;25.40;50.10;;;;;;5048741;28;20024;-64
2022/07/20 02:19:57;;;;;;;1.38;1.27;;;25.40;49.90;;;;;;5050410;28;20052;-64
2022/07/20 02:22:23;;;;;;;1.45;1.23;;;25.40;49.70;;;;;;5066727;28;20032;-64
2022/07/20 02:24:49;;;;;;;2.15;1.25;;;25.40;49.40;;;;;;5051486;28;20111;-65
2022/07/20 02:27:14;;;;;;;1.67;1.42;;;25.40;49.40;;;;;;5052052;28;20401;-70
2022/07/20 02:29:40;;;;;;;1.95;1.10;;;25.40;49.60;;;;;;5055591;28;20097;-70
2022/07/20 02:32:06;;;;;;;1.95;1.60;;;25.30;50.00;;;;;;5048676;28;20056;-70
2022/07/20 02:34:32;;;;;;;1.30;1.20;;;25.30;49.80;;;;;;5051146;28;20067;-70
2022/07/20 02:36:57;;;;;;;1.92;1.73;;;25.30;49.80;;;;;;5069875;28;20060;-64
2022/07/20 02:39:23;;;;;;;1.30;1.20;;;25.30;49.70;;;;;;5046203;28;20033;-65
2022/07/20 02:41:48;;;;;;;1.63;1.13;;;25.20;49.50;;;;;;5056123;28;20052;-64
2022/07/20 02:44:14;;;;;;;2.35;1.83;;;25.20;49.80;;;;;;5047834;28;20086;-64
2022/07/20 02:46:40;;;;;;;1.55;1.42;;;25.20;49.90;;;;;;5055759;28;21516;-64
2022/07/20 02:49:06;;;;;;;4.30;1.00;;;25.10;50.10;;;;;;5042249;28;20107;-64
2022/07/20 02:51:32;;;;;;;1.33;1.15;;;25.10;50.10;;;;;;5053449;28;20039;-70
2022/07/20 02:53:58;;;;;;;1.85;1.17;;;25.10;50.30;;;;;;5054949;28;20092;-70
2022/07/20 02:56:24;;;;;;;1.38;1.27;;;25.10;50.40;;;;;;5059670;28;20028;-64
2022/07/20 02:58:49;;;;;;;1.33;1.23;;;25.00;50.40;;;;;;5044458;28;20463;-64
2022/07/20 03:01:15;;;;;;;1.63;1.40;;;24.90;50.30;;;;;;5052918;28;20035;-70
2022/07/20 03:03:40;;;;;;;2.15;1.00;;;24.90;50.20;;;;;;5033813;28;20049;-70
2022/07/20 03:06:06;;;;;;;2.33;1.25;;;24.80;50.40;;;;;;5049098;28;20105;-70
2022/07/20 03:08:32;;;;;;;1.80;1.55;;;24.80;50.80;;;;;;5047124;28;20029;-70
2022/07/20 03:10:58;;;;;;;1.35;1.25;;;24.70;50.90;;;;;;5044062;28;20033;-70
2022/07/20 03:13:23;;;;;;;2.17;1.42;;;24.70;50.90;;;;;;5046146;28;20051;-71
2022/07/20 03:15:49;;;;;;;1.50;1.00;;;24.70;50.80;;;;;;5045746;28;20059;-70
2022/07/20 03:18:15;;;;;;;1.10;1.10;;;24.70;50.60;;;;;;5048065;28;20466;-70
2022/07/20 03:20:40;;;;;;;1.77;1.38;;;24.70;50.70;;;;;;5048660;28;20079;-70
2022/07/20 03:23:06;;;;;;;1.90;1.38;;;24.60;50.90;;;;;;5049718;28;20124;-70
2022/07/20 03:25:32;;;;;;;3.75;1.48;;;24.50;51.10;;;;;;5063153;28;20433;-69
2022/07/20 03:27:58;;;;;;;4.45;1.80;;;24.50;51.20;;;;;;5053793;28;20079;-69
2022/07/20 03:30:25;;;;;;;1.67;0.90;;;24.40;51.20;;;;;;5048261;28;20025;-70
2022/07/20 03:32:51;;;;;;;1.60;1.20;;;24.40;51.40;;;;;;5053182;28;20033;-69
2022/07/20 03:35:17;;;;;;;1.85;1.60;;;24.30;51.30;;;;;;5052825;28;20031;-70
2022/07/20 03:37:42;;;;;;;1.58;1.23;;;24.30;51.40;;;;;;5058726;28;20013;-70
2022/07/20 03:40:09;;;;;;;1.65;1.40;;;24.30;51.50;;;;;;5054143;28;20021;-69
2022/07/20 03:42:35;;;;;;;1.65;1.20;;;24.30;51.70;;;;;;5058048;28;20375;-69
2022/07/20 03:45:02;;;;;;;1.30;1.20;;;24.30;51.80;;;;;;5057519;28;20021;-69
2022/07/20 03:47:27;;;;;;;1.40;1.20;;;24.30;51.70;;;;;;5057613;28;20495;-69
2022/07/20 03:49:53;;;;;;;1.45;1.10;;;24.20;51.60;;;;;;5063230;28;20040;-64
2022/07/20 03:52:20;;;;;;;1.50;1.40;;;24.20;51.60;;;;;;5059571;28;20025;-69
2022/07/20 03:54:46;;;;;;;1.40;1.30;;;24.30;51.70;;;;;;5066957;28;20036;-69
2022/07/20 03:57:12;;;;;;;1.58;1.48;;;24.30;51.60;;;;;;5059305;28;20397;-64
2022/07/20 03:59:38;;;;;;;1.88;1.67;;;24.40;51.80;;;;;;5068039;28;20052;-63
2022/07/20 04:02:04;;;;;;;2.97;1.30;;;24.30;51.90;;;;;;5058438;28;20065;-64
2022/07/20 04:04:30;;;;;;;1.50;1.20;;;24.40;51.90;;;;;;5060098;28;20051;-64
2022/07/20 04:06:59;;;;;;;2.80;1.77;;;24.40;51.90;;;;;;5050662;28;20039;-63
2022/07/20 04:12:11;;;;;;;1.83;1.35;;;24.30;52.20;;;;;;5049058;28;20122;-69
2022/07/20 04:14:37;;;;;;;3.15;1.52;;;24.30;52.40;;;;;;5049058;28;20179;-69
2022/07/20 04:17:03;;;;;;;3.05;1.55;;;24.30;52.30;;;;;;5044872;28;20108;-71
2022/07/20 04:19:29;;;;;;;2.60;1.65;;;24.30;52.60;;;;;;5049697;28;20182;-70
2022/07/20 04:21:58;;;;;;;3.03;2.20;;;24.30;52.40;;;;;;5034632;28;20021;-71
2022/07/20 04:24:25;;;;;;;2.13;1.50;;;24.40;52.50;;;;;;5045316;28;20123;-64
2022/07/20 04:26:51;;;;;;;1.00;0.90;;;24.40;52.40;;;;;;5038683;28;20076;-64
2022/07/20 04:29:17;;;;;;;1.92;1.48;;;24.40;52.30;;;;;;5040487;28;20037;-64
2022/07/20 04:31:43;;;;;;;1.48;1.38;;;24.50;52.00;;;;;;5046092;28;20029;-64
2022/07/20 04:34:09;;;;;;;2.50;1.73;;;24.60;51.50;;;;;;5050050;28;20067;-64
2022/07/20 04:36:34;;;;;;;1.42;1.20;;;24.80;51.20;;;;;;5037118;28;20032;-65
2022/07/20 04:39:00;;;;;;;1.90;1.80;;;24.90;50.90;;;;;;5039124;28;20441;-64
2022/07/20 04:41:26;;;;;;;1.92;1.75;;;25.00;50.70;;;;;;5046965;28;20395;-70
2022/07/20 04:43:51;;;;;;;4.63;2.60;;;25.10;50.60;;;;;;5042941;28;20065;-69
2022/07/20 04:46:17;;;;;;;3.33;2.15;;;25.20;50.60;;;;;;5035068;28;20112;-70
2022/07/20 04:48:43;;;;;;;1.98;1.88;;;25.20;50.50;;;;;;5045702;28;20052;-70
2022/07/20 04:51:08;;;;;;;3.28;2.17;;;25.30;50.90;;;;;;5055121;28;20029;-70
2022/07/20 04:53:43;;;;;;;4.15;2.72;;;25.30;51.30;;;;;;5037185;28;20052;-70
2022/07/20 04:56:09;;;;;;;3.20;2.53;;;25.30;51.60;;;;;;5041197;28;20087;-70
2022/07/20 04:58:35;;;;;;;9.88;2.67;;;25.30;52.00;;;;;;5043882;28;20029;-71
2022/07/20 05:01:04;;;;;;;4.45;2.72;;;25.30;52.30;;;;;;5036151;28;20041;-70
2022/07/20 05:03:29;;;;;;;4.10;2.63;;;25.40;53.20;;;;;;5047395;28;20507;-70
2022/07/20 05:05:55;;;;;;;5.03;3.20;;;25.40;53.10;;;;;;5063394;28;20033;-70
2022/07/20 05:08:24;;;;;;;3.88;3.08;;;25.40;53.40;;;;;;5057399;28;20040;-71
2022/07/20 05:10:49;;;;;;;4.88;3.90;;;25.50;53.80;;;;;;5064405;28;20036;-70
2022/07/20 05:13:15;;;;;;;5.32;3.38;;;25.50;54.50;;;;;;5077915;28;20051;-70
2022/07/20 05:15:41;;;;;;;7.25;4.05;;;25.50;54.60;;;;;;5057948;28;20056;-70
2022/07/20 05:18:07;;;;;;;5.28;3.35;;;25.50;55.80;;;;;;5051894;28;20474;-70
2022/07/20 05:20:32;;;;;;;8.25;4.25;;;25.50;56.00;;;;;;5057956;28;20037;-70
2022/07/20 05:22:58;;;;;;;7.68;5.20;;;25.50;56.70;;;;;;5052305;28;20040;-70
2022/07/20 05:25:24;;;;;;;5.55;4.10;;;25.50;57.20;;;;;;5058324;28;20051;-71
2022/07/20 05:27:49;;;;;;;8.75;5.50;;;25.50;57.30;;;;;;5057700;28;20032;-70
2022/07/20 05:30:15;;;;;;;7.57;5.03;;;25.50;57.50;;;;;;5053351;28;20391;-70
2022/07/20 05:32:41;;;;;;;10.20;4.70;;;25.50;57.90;;;;;;5049587;28;20457;-71
2022/07/20 05:35:08;;;;;;;8.38;4.72;;;25.50;58.00;;;;;;5052668;28;20455;-65
2022/07/20 05:37:34;;;;;;;8.60;5.45;;;25.60;57.70;;;;;;5056346;28;20372;-65
2022/07/20 05:40:00;;;;;;;8.70;6.40;;;25.70;58.80;;;;;;5043099;28;20095;-70
2022/07/20 05:42:25;;;;;;;10.48;5.95;;;25.60;59.40;;;;;;5048511;28;20029;-70
2022/07/20 05:44:51;;;;;;;7.00;4.50;;;25.60;59.90;;;;;;5049117;28;20119;-71
2022/07/20 05:47:17;;;;;;;10.45;5.18;;;25.60;59.50;;;;;;5060407;28;20115;-64
2022/07/20 05:49:47;;;;;;;9.38;4.78;;;25.70;59.40;;;;;;5047192;28;20037;-65
2022/07/20 05:52:16;;;;;;;8.38;6.47;;;25.80;59.20;;;;;;5061805;28;20561;-65
2022/07/20 05:54:41;;;;;;;5.90;4.28;;;25.90;59.70;;;;;;5062118;28;20025;-64
2022/07/20 05:57:07;;;;;;;10.00;6.20;;;26.00;59.20;;;;;;5061057;28;20037;-64
2022/07/20 05:59:33;;;;;;;8.55;4.38;;;26.00;59.30;;;;;;5059543;28;20029;-70
2022/07/20 06:01:58;;;;;;;11.68;6.22;;;26.10;59.10;;;;;;5061052;28;20045;-70
2022/07/20 06:04:25;;;;;;;10.10;6.28;;;26.10;59.40;;;;;;5057479;28;20159;-70
2022/07/20 06:06:51;;;;;;;9.73;6.07;;;26.20;59.60;;;;;;5067719;28;20028;-70
2022/07/20 06:09:16;;;;;;;7.63;5.47;;;26.30;59.40;;;;;;5052808;28;20047;-71
2022/07/20 06:11:42;;;;;;;6.18;4.78;;;26.30;59.20;;;;;;5044233;28;20368;-70
2022/07/20 06:14:08;;;;;;;11.15;6.78;;;26.40;59.50;;;;;;5053112;28;20040;-70
2022/07/20 06:16:33;;;;;;;7.32;4.97;;;26.40;60.00;;;;;;5054103;28;20031;-70
2022/07/20 06:18:59;;;;;;;12.05;5.55;;;26.40;60.00;;;;;;5059621;28;20435;-70
2022/07/20 06:21:25;;;;;;;6.40;4.95;;;26.50;60.00;;;;;;5067156;28;20117;-70
2022/07/20 06:23:50;;;;;;;13.38;6.82;;;26.50;59.70;;;;;;5054941;28;20041;-70
2022/07/20 06:26:16;;;;;;;9.98;6.88;;;26.60;60.10;;;;;;5062746;28;20060;-70
2022/07/20 06:28:41;;;;;;;10.65;7.03;;;26.60;59.70;;;;;;5051948;28;20063;-64
2022/07/20 06:31:07;;;;;;;11.73;6.75;;;26.70;59.60;;;;;;5055386;28;20056;-64
2022/07/20 06:33:33;;;;;;;10.40;6.47;;;26.70;60.00;;;;;;5046707;28;20071;-64
2022/07/20 06:36:00;;;;;;;11.10;7.25;;;26.80;60.20;;;;;;5040332;28;20021;-63
2022/07/20 06:38:25;;;;;;;11.63;6.80;;;26.80;60.30;;;;;;5059525;28;20068;-64
2022/07/20 06:40:51;;;;;;;12.00;7.63;;;26.90;60.00;;;;;;5045034;28;20032;-64
2022/07/20 06:43:17;;;;;;;13.90;8.43;;;26.90;60.40;;;;;;5041599;28;20113;-65
2022/07/20 06:45:49;;;;;;;17.92;8.40;;;26.90;60.60;;;;;;5049902;28;20252;-64
2022/07/20 06:48:15;;;;;;;10.68;7.30;;;26.80;60.80;;;;;;5053511;28;20093;-65
2022/07/20 06:50:41;;;;;;;13.70;8.68;;;26.90;60.50;;;;;;5039717;28;20470;-65
2022/07/20 06:53:07;;;;;;;10.48;7.28;;;26.90;60.60;;;;;;5047570;28;20130;-68
2022/07/20 06:55:33;;;;;;;8.35;6.22;;;27.00;60.40;;;;;;5049459;28;20025;-69
2022/07/20 06:57:58;;;;;;;14.68;9.23;;;27.10;60.10;;;;;;5043600;28;20037;-69
2022/07/20 07:00:24;;;;;;;13.48;6.55;;;27.20;60.10;;;;;;5048957;28;20052;-69
2022/07/20 07:02:50;;;;;;;21.95;9.88;;;27.20;59.70;;;;;;5050263;28;20504;-69
2022/07/20 07:05:15;;;;;;;13.90;7.88;;;27.30;60.00;;;;;;5047541;28;20045;-68
2022/07/20 07:07:41;;;;;;;14.25;7.90;;;27.30;59.80;;;;;;5047933;28;20022;-70
2022/07/20 07:10:07;;;;;;;11.50;6.43;;;27.30;60.00;;;;;;5048057;28;20025;-70
2022/07/20 07:12:33;;;;;;;8.90;5.75;;;27.30;59.70;;;;;;5048173;28;20029;-70
2022/07/20 07:14:58;;;;;;;12.35;6.43;;;27.40;59.30;;;;;;5045026;28;20025;-69
2022/07/20 07:17:24;;;;;;;13.70;7.07;;;27.50;59.00;;;;;;5049570;28;20029;-64
2022/07/20 07:19:50;;;;;;;8.68;6.43;;;27.40;59.00;;;;;;5042649;28;20140;-69
2022/07/20 07:22:15;;;;;;;7.70;5.45;;;27.30;59.00;;;;;;5053663;28;20033;-69
2022/07/20 07:24:41;;;;;;;12.77;6.85;;;27.40;58.80;;;;;;5057189;28;20028;-70
2022/07/20 07:27:06;;;;;;;14.93;7.70;;;27.40;58.40;;;;;;5055630;28;20033;-70
2022/07/20 07:29:32;;;;;;;13.77;6.70;;;27.30;58.30;;;;;;5057557;28;20360;-69
2022/07/20 07:32:01;;;;;;;12.55;5.70;;;27.40;58.20;;;;;;5056481;28;20455;-69
2022/07/20 07:34:28;;;;;;;12.38;7.30;;;27.40;58.00;;;;;;5056730;28;20040;-69
2022/07/20 07:36:54;;;;;;;7.63;4.57;;;27.30;58.50;;;;;;5055141;28;20090;-69
2022/07/20 07:39:20;;;;;;;7.78;5.75;;;27.30;57.90;;;;;;5061793;28;20021;-70
2022/07/20 07:41:46;;;;;;;8.82;5.40;;;27.50;57.70;;;;;;5051747;28;20037;-68
2022/07/20 07:44:11;;;;;;;6.97;4.78;;;27.60;57.20;;;;;;5058450;28;20079;-64
2022/07/20 07:46:37;;;;;;;9.85;5.65;;;27.60;57.00;;;;;;5056491;28;20036;-64
2022/07/20 07:49:03;;;;;;;9.25;5.85;;;27.70;56.60;;;;;;5050085;28;20383;-64
2022/07/20 07:51:29;;;;;;;7.55;4.97;;;27.80;56.40;;;;;;5054842;28;20392;-64
2022/07/20 07:53:55;;;;;;;12.77;5.88;;;28.00;56.30;;;;;;5058207;28;20032;-68
2022/07/20 07:56:21;;;;;;;6.80;5.38;;;28.10;56.00;;;;;;5058378;28;20032;-68
2022/07/20 07:58:46;;;;;;;7.00;4.95;;;28.00;56.00;;;;;;5049876;28;20039;-69
2022/07/20 08:01:12;;;;;;;6.82;5.43;;;28.00;55.90;;;;;;5051157;28;20096;-69
2022/07/20 08:03:38;;;;;;;7.63;4.97;;;28.00;55.50;;;;;;5055562;28;20396;-68
2022/07/20 08:06:04;;;;;;;8.20;4.95;;;28.00;54.80;;;;;;5048388;28;20029;-71
2022/07/20 08:08:31;;;;;;;10.35;4.50;;;27.90;54.90;;;;;;5057200;28;20128;-70
2022/07/20 08:10:57;;;;;;;9.25;6.40;;;27.90;55.10;;;;;;5052383;28;20033;-68
2022/07/20 08:13:23;;;;;;;9.43;4.90;;;28.00;55.20;;;;;;5052327;28;20033;-69
2022/07/20 08:15:55;;;;;;;7.68;4.32;;;28.00;55.20;;;;;;5051238;28;20025;-69
2022/07/20 08:18:21;;;;;;;9.52;4.85;;;28.20;55.10;;;;;;5042751;28;20025;-69
2022/07/20 08:20:46;;;;;;;7.80;3.60;;;28.30;54.80;;;;;;5038434;28;20040;-68
2022/07/20 08:23:12;;;;;;;7.72;4.72;;;28.40;54.30;;;;;;5041544;28;20106;-68
2022/07/20 08:25:38;;;;;;;8.63;5.38;;;28.50;53.90;;;;;;5041482;28;20399;-69
2022/07/20 08:28:10;;;;;;;6.45;4.53;;;28.50;53.20;;;;;;5044632;28;20040;-69
2022/07/20 08:30:37;;;;;;;3.72;3.30;;;28.40;53.40;;;;;;5041699;28;20049;-69
2022/07/20 08:33:03;;;;;;;4.22;3.10;;;28.40;53.40;;;;;;5037463;28;20032;-69
2022/07/20 08:35:29;;;;;;;4.47;3.17;;;28.50;53.10;;;;;;5057599;28;20037;-69
2022/07/20 08:37:54;;;;;;;6.18;2.97;;;28.70;52.60;;;;;;5044909;28;20029;-64
2022/07/20 08:40:20;;;;;;;6.40;4.32;;;28.80;52.20;;;;;;5057212;28;20032;-64
2022/07/20 08:42:46;;;;;;;8.50;3.80;;;28.90;51.80;;;;;;5056150;28;20033;-64
2022/07/20 08:45:11;;;;;;;4.53;3.45;;;28.90;51.20;;;;;;5053416;28;20416;-68
2022/07/20 08:47:40;;;;;;;6.32;4.22;;;29.00;51.20;;;;;;5064447;28;20032;-70
2022/07/20 08:50:06;;;;;;;3.88;3.10;;;29.20;50.90;;;;;;5038704;28;20043;-64
2022/07/20 08:52:31;;;;;;;12.38;4.38;;;29.20;50.80;;;;;;5039446;28;20057;-64
2022/07/20 08:54:57;;;;;;;4.85;3.38;;;29.20;50.30;;;;;;5047005;28;20112;-68
2022/07/20 08:57:23;;;;;;;5.47;3.63;;;29.10;50.50;;;;;;5048434;28;20033;-68
2022/07/20 08:59:48;;;;;;;7.40;3.60;;;29.10;50.30;;;;;;5041097;28;20061;-68
2022/07/20 09:02:15;;;;;;;6.40;3.85;;;29.10;50.50;;;;;;5051107;28;20114;-64
2022/07/20 09:04:53;;;;;;;7.68;4.28;;;29.20;50.20;;;;;;5045269;28;20061;-64
2022/07/20 09:07:41;;;;;;;6.97;3.75;;;29.30;49.70;;;;;;5043356;28;20115;-64
2022/07/20 09:10:10;;;;;;;4.40;3.20;;;29.50;49.30;;;;;;5041441;28;20049;-65
2022/07/20 09:12:58;;;;;;;6.13;2.53;;;29.50;49.20;;;;;;5047542;28;20041;-64
2022/07/20 09:15:32;;;;;;;5.20;3.25;;;29.50;49.00;;;;;;5049751;28;20033;-64
2022/07/20 09:18:13;;;;;;;6.30;2.63;;;29.60;49.10;;;;;;5052354;28;20491;-64
2022/07/20 09:20:42;;;;;;;3.47;3.00;;;29.80;49.00;;;;;;5036539;28;20060;-64
2022/07/20 09:23:14;;;;;;;3.42;2.90;;;29.90;48.40;;;;;;5055245;28;20028;-69
2022/07/20 09:26:00;;;;;;;3.65;2.58;;;30.00;48.30;;;;;;5049010;28;20057;-69
2022/07/20 09:28:35;;;;;;;3.65;2.70;;;30.10;48.20;;;;;;5047862;28;20045;-68
2022/07/20 09:31:01;;;;;;;3.55;2.55;;;30.10;47.30;;;;;;5041979;28;20364;-67
2022/07/20 09:33:31;;;;;;;5.50;2.50;;;30.10;47.50;;;;;;5045552;28;20081;-69
2022/07/20 09:36:01;;;;;;;2.95;2.33;;;30.10;47.40;;;;;;5047057;28;21841;-68
2022/07/20 09:38:41;;;;;;;3.90;2.42;;;30.20;47.10;;;;;;5047179;28;20606;-68
2022/07/20 09:41:26;;;;;;;2.47;1.98;;;30.30;47.00;;;;;;5048767;28;20388;-68
2022/07/20 09:43:53;;;;;;;3.40;2.50;;;30.40;46.80;;;;;;5062714;28;20842;-68
2022/07/20 09:46:21;;;;;;;5.72;3.28;;;30.60;47.30;;;;;;5050920;28;20032;-68
2022/07/20 09:48:50;;;;;;;2.47;2.17;;;30.60;46.10;;;;;;5048019;28;20044;-69
2022/07/20 09:51:25;;;;;;;2.55;2.35;;;30.60;46.40;;;;;;5047362;28;20386;-68
2022/07/20 09:54:06;;;;;;;3.55;2.47;;;30.70;46.00;;;;;;5063595;28;20052;-68
2022/07/20 09:56:34;;;;;;;2.63;2.28;;;30.80;45.90;;;;;;5045727;28;20425;-64
2022/07/20 09:59:05;;;;;;;4.68;3.08;;;30.90;45.40;;;;;;5055086;28;20112;-64
2022/07/20 10:01:34;;;;;;;3.50;2.35;;;31.00;44.70;;;;;;5040939;28;20029;-63
2022/07/20 10:04:02;;;;;;;2.95;2.55;;;30.80;44.50;;;;;;5062215;28;20436;-64
2022/07/20 10:06:28;;;;;;;2.08;1.75;;;30.70;44.90;;;;;;5041892;28;20040;-64
2022/07/20 10:08:55;;;;;;;7.18;3.00;;;30.80;45.00;;;;;;5060874;28;20082;-68
2022/07/20 10:11:23;;;;;;;3.58;2.38;;;31.00;45.40;;;;;;5041071;28;20414;-64
2022/07/20 10:13:51;;;;;;;5.22;2.47;;;31.10;45.40;;;;;;5049063;28;20491;-64
2022/07/20 10:16:43;;;;;;;6.93;2.83;;;31.20;45.60;;;;;;5040597;28;20024;-64
2022/07/20 10:19:10;;;;;;;4.45;2.95;;;31.40;45.70;;;;;;5048514;28;20052;-64
2022/07/20 10:21:37;;;;;;;3.90;2.45;;;31.40;45.30;;;;;;5048368;28;20029;-64
2022/07/20 10:24:31;;;;;;;4.00;2.13;;;31.40;45.60;;;;;;5050415;28;20033;-69
2022/07/20 10:27:03;;;;;;;2.67;2.33;;;31.50;45.80;;;;;;5048855;28;20068;-69
2022/07/20 10:29:42;;;;;;;3.10;2.28;;;31.60;45.70;;;;;;5050102;28;20044;-68
2022/07/20 10:32:11;;;;;;;4.18;2.45;;;31.70;45.60;;;;;;5046530;28;20428;-68
2022/07/20 10:34:38;;;;;;;2.70;2.50;;;31.80;45.30;;;;;;5053230;28;20032;-68
2022/07/20 10:37:25;;;;;;;2.60;2.00;;;31.90;44.90;;;;;;5051006;28;20036;-68
2022/07/20 10:39:57;;;;;;;2.75;1.83;;;31.90;44.20;;;;;;5054839;28;20025;-68
2022/07/20 10:42:37;;;;;;;3.33;2.60;;;31.80;44.20;;;;;;5049618;28;20380;-68
2022/07/20 10:45:23;;;;;;;2.50;2.30;;;31.80;43.80;;;;;;5055190;28;20038;-68
2022/07/20 10:47:53;;;;;;;3.45;2.72;;;31.80;44.00;;;;;;5044360;28;20695;-68
2022/07/20 10:50:29;;;;;;;6.30;3.15;;;32.00;44.10;;;;;;5045132;28;20037;-72
2022/07/20 10:52:58;;;;;;;3.58;2.45;;;32.10;44.30;;;;;;5051705;28;20033;-71
2022/07/20 10:55:33;;;;;;;6.60;3.78;;;32.00;44.50;;;;;;5048844;28;20045;-72
2022/07/20 10:58:10;;;;;;;3.70;2.75;;;32.00;44.90;;;;;;5060204;28;20123;-66
2022/07/20 11:00:57;;;;;;;3.47;3.08;;;32.00;45.10;;;;;;5049015;28;20577;-71
2022/07/20 11:03:40;;;;;;;4.32;2.80;;;32.10;44.90;;;;;;5051468;28;20025;-71
2022/07/20 11:06:12;;;;;;;4.32;2.35;;;32.10;45.10;;;;;;5052063;28;20067;-66
2022/07/20 11:08:41;;;;;;;2.35;1.73;;;32.10;45.30;;;;;;5053030;28;20518;-71
2022/07/20 11:11:12;;;;;;;3.35;2.17;;;32.40;45.20;;;;;;5053534;28;20036;-66
2022/07/20 11:13:38;;;;;;;;;;;32.60;44.80;;;;;;5048176;28;20072;-70
2022/07/20 11:16:04;;;;;;;5.72;2.08;;;32.70;44.30;;;;;;5050638;28;20405;-71
2022/07/20 11:18:32;;;;;;;4.43;2.60;;;32.70;44.20;;;;;;5051994;28;20033;-68
2022/07/20 11:21:06;;;;;;;2.45;2.25;;;32.80;44.00;;;;;;5044990;28;20033;-71
2022/07/20 11:23:52;;;;;;;2.30;2.10;;;32.90;43.80;;;;;;5041924;28;20090;-66
2022/07/20 11:26:21;;;;;;;3.63;2.40;;;32.70;43.20;;;;;;5038825;28;20049;-66
2022/07/20 11:28:49;;;;;;;2.03;1.60;;;32.50;43.40;;;;;;5045843;28;20108;-66
2022/07/20 11:31:17;;;;;;;2.50;2.15;;;32.50;43.40;;;;;;5035682;28;20028;-66
2022/07/20 11:33:46;;;;;;;4.32;3.08;;;32.60;43.50;;;;;;5041546;28;20114;-67
2022/07/20 11:36:18;;;;;;;2.20;2.00;;;32.80;42.80;;;;;;5047981;28;20028;-67
2022/07/20 11:38:46;;;;;;;2.03;1.83;;;32.90;42.70;;;;;;5046563;28;20140;-66
2022/07/20 11:41:17;;;;;;;3.13;2.00;;;33.10;42.60;;;;;;5037485;28;20045;-65
2022/07/20 11:43:43;;;;;;;2.53;2.15;;;33.10;42.20;;;;;;5039977;28;20500;-66
2022/07/20 11:46:09;;;;;;;1.73;1.60;;;33.30;41.80;;;;;;5040208;28;20111;-66
2022/07/20 11:48:34;;;;;;;2.85;2.30;;;33.40;42.00;;;;;;5037856;28;20029;-66
2022/07/20 11:51:00;;;;;;;3.05;2.42;;;33.60;41.60;;;;;;5044696;28;20029;-70
2022/07/20 11:53:32;;;;;;;5.40;2.10;;;33.70;41.10;;;;;;5043194;28;20056;-71
2022/07/20 11:55:59;;;;;;;2.72;2.03;;;33.60;41.20;;;;;;5046543;28;20025;-70
2022/07/20 11:58:29;;;;;;;2.72;2.30;;;33.50;41.50;;;;;;5045318;28;20041;-71
2022/07/20 12:00:56;;;;;;;2.30;2.10;;;33.50;41.20;;;;;;5050317;28;20119;-72
2022/07/20 12:03:26;;;;;;;2.47;2.05;;;33.40;41.40;;;;;;5042457;28;20039;-65
2022/07/20 12:05:51;;;;;;;2.15;1.90;;;33.60;41.30;;;;;;5058409;28;20433;-68
2022/07/20 12:08:18;;;;;;;2.30;2.10;;;33.80;40.80;;;;;;5040480;28;20029;-67
2022/07/20 12:10:45;;;;;;;2.60;1.73;;;33.80;40.10;;;;;;5047227;28;20037;-67
2022/07/20 12:13:12;;;;;;;2.03;1.60;;;33.80;40.40;;;;;;5053742;28;20037;-66
2022/07/20 12:15:37;;;;;;;2.22;1.85;;;33.80;40.60;;;;;;5041109;28;20041;-67
2022/07/20 12:18:04;;;;;;;2.20;1.67;;;33.70;40.60;;;;;;5040392;28;20369;-66
2022/07/20 12:20:30;;;;;;;1.60;1.50;;;33.60;40.80;;;;;;5039155;28;20033;-64
2022/07/20 12:22:58;;;;;;;1.98;1.85;;;33.60;40.70;;;;;;5042796;28;20028;-66
2022/07/20 12:25:42;;;;;;;2.45;1.92;;;33.60;40.40;;;;;;5069550;28;20028;-64
2022/07/20 12:28:08;;;;;;;2.30;2.05;;;33.50;40.70;;;;;;5043544;28;20025;-66
2022/07/20 12:30:38;;;;;;;2.85;1.60;;;33.60;40.60;;;;;;5049057;28;20540;-66
2022/07/20 12:33:13;;;;;;;4.55;2.55;;;33.60;40.00;;;;;;5065908;28;20041;-63
2022/07/20 12:35:44;;;;;;;1.73;1.63;;;33.70;39.90;;;;;;5047729;28;20052;-66
2022/07/20 12:38:12;;;;;;;2.38;1.80;;;33.70;39.60;;;;;;5048581;28;20407;-65
2022/07/20 12:40:44;;;;;;;1.80;1.70;;;33.80;39.70;;;;;;5047771;28;20033;-63
2022/07/20 12:43:29;;;;;;;2.17;1.98;;;34.10;39.60;;;;;;5050245;28;20024;-64
2022/07/20 12:45:56;;;;;;;2.55;1.77;;;34.30;39.00;;;;;;5042594;28;20071;-63
2022/07/20 12:48:21;;;;;;;2.00;1.88;;;34.50;39.10;;;;;;5065527;28;20077;-63
2022/07/20 12:50:48;;;;;;;1.67;1.50;;;34.70;38.60;;;;;;5056866;28;20082;-63
2022/07/20 12:53:13;;;;;;;2.22;1.67;;;34.80;38.40;;;;;;5067707;28;20051;-64